Huvudsida
METAR-TAF:

METAR-TAF

Flygplatser :

Vidsel, Sverige

Vidsels flygplats

latitud: 65-52N, longitud: 020-08E, höjd: 180 m

Aktuellt väderrapport

Denna rapport gjordes för 13 minuter sedan, klockan 03:20 UTC
Vind 4 kt från nordväst
Temperatur -14°C
Fuktighet 92%
Tryck 1003 hPa
Sikt: 2500 m
lätt snö

METAR: ESPE 190320Z AUTO 31004KT 2500 -SN FEW013/// SCT035/// OVC048/// M14/M15 Q1003

Tid: 04:33 (03:33 UTC)

Väderprognos

Denna rapport gjordes för 15 timmar och 38 minuter sedan, klockan 11:55 UTC
Prognos gäller från 18 kl. 12 UTC till 18 kl. 15 UTC
Vind 4 kt från ost
Sikt: 5000 m
Spridda moln på en höjd av 500 ft
Brutna moln på en höjd av 2000 ft
lätt snö
Temporärt
från 18 kl. 12 UTC till 18 kl. 15 UTC
Sikt: 1000 m
på en höjd av 1200 ft
snö

TAF: ESPE 181155Z 1812/1815 08004KT 5000 -SN SCT005 BKN020 TEMPO 1812/1815 1000 SN VV012 RMK MIL

Aktuella väderrapporter och prognoser från 4000 flygplatser (METAR- och TAF-rapporter).

De tillgängliga stationerna syns som gula och röda prickar på kartan.

För musen över prickarna för att se namnen på stationerna.

Klicka sedan för att få väderrapporter och prognoser.

För att ändra kartan: Klicka på de gröna knapparna med ett svart kors på för att zooma in; den gröna knappen med ett streck på för att zooma ut; eller på de gröna pilarna för angränsande kartor.


METAR-TAF: